createdAt,value
2023-01-13T00:02:43.439Z,59.23
2023-01-13T00:05:28.066Z,58.51
2023-01-13T00:08:12.936Z,59.14
2023-01-13T00:10:57.616Z,58.03
2023-01-13T00:13:42.547Z,58.26
2023-01-13T00:16:27.290Z,58.29
2023-01-13T00:19:11.964Z,57.85
2023-01-13T00:21:56.805Z,57.21
2023-01-13T00:24:41.595Z,56.89
2023-01-13T00:27:26.451Z,56.43
2023-01-13T00:30:11.059Z,56.75
2023-01-13T00:32:55.879Z,57.66
2023-01-13T00:35:40.475Z,57.50
2023-01-13T00:38:25.223Z,57.41
2023-01-13T00:41:09.981Z,56.59
2023-01-13T00:43:54.834Z,57.68
2023-01-13T00:46:39.708Z,57.71
2023-01-13T00:49:24.848Z,58.51
2023-01-13T00:52:09.758Z,59.05
2023-01-13T00:54:54.478Z,59.41
2023-01-13T00:57:39.420Z,58.78
2023-01-13T01:00:24.041Z,59.09
2023-01-13T01:03:08.951Z,59.74
2023-01-13T01:05:53.710Z,60.19
2023-01-13T01:08:38.417Z,59.83
2023-01-13T01:11:23.120Z,60.36
2023-01-13T01:14:07.901Z,59.31
2023-01-13T01:16:52.960Z,59.86
2023-01-13T01:19:38.086Z,58.83
2023-01-13T01:22:22.834Z,60.49
2023-01-13T01:25:07.578Z,61.95
2023-01-13T01:27:52.442Z,62.09
2023-01-13T01:30:37.175Z,62.16
2023-01-13T01:33:21.939Z,61.52
2023-01-13T01:36:06.662Z,61.26
2023-01-13T01:38:51.546Z,61.18
2023-01-13T01:41:36.244Z,61.82
2023-01-13T01:44:20.952Z,62.87
2023-01-13T01:47:05.726Z,61.99
2023-01-13T01:49:50.435Z,59.99
2023-01-13T01:52:35.365Z,59.88
2023-01-13T01:55:20.148Z,58.91
2023-01-13T01:58:04.912Z,58.78
2023-01-13T02:00:49.615Z,59.26
2023-01-13T02:03:34.369Z,58.39
2023-01-13T02:06:19.040Z,59.67
2023-01-13T02:09:03.849Z,58.94
2023-01-13T02:11:48.653Z,58.62
2023-01-13T02:14:33.392Z,58.88
2023-01-13T02:17:18.116Z,59.89
2023-01-13T02:20:02.788Z,59.61
2023-01-13T02:22:47.603Z,59.83
2023-01-13T02:25:32.301Z,60.64
2023-01-13T02:28:17.008Z,59.13
2023-01-13T02:31:01.846Z,58.46
2023-01-13T02:33:46.549Z,58.48
2023-01-13T02:36:31.218Z,58.59
2023-01-13T02:39:15.964Z,58.09
2023-01-13T02:42:00.639Z,57.67
2023-01-13T02:44:45.412Z,57.65
2023-01-13T02:47:30.227Z,57.06
2023-01-13T02:50:14.945Z,57.04
2023-01-13T02:52:59.728Z,57.30
2023-01-13T02:55:44.469Z,57.00
2023-01-13T02:58:29.315Z,57.16
2023-01-13T03:01:14.095Z,58.07
2023-01-13T03:03:59.327Z,59.10
2023-01-13T03:06:44.040Z,58.57
2023-01-13T03:09:28.741Z,58.38
2023-01-13T03:12:13.333Z,59.01
2023-01-13T03:14:58.122Z,59.13
2023-01-13T03:17:42.896Z,57.95
2023-01-13T03:20:27.661Z,58.15
2023-01-13T03:23:12.571Z,57.51
2023-01-13T03:25:57.323Z,57.56
2023-01-13T03:28:42.158Z,56.64
2023-01-13T03:31:26.851Z,56.65
2023-01-13T03:34:11.618Z,57.88
2023-01-13T03:36:56.284Z,58.37
2023-01-13T03:39:41.125Z,58.04
2023-01-13T03:42:25.906Z,58.24
2023-01-13T03:45:10.553Z,57.10
2023-01-13T03:47:55.269Z,57.23
2023-01-13T03:50:40.024Z,57.76
2023-01-13T03:53:24.787Z,57.12
2023-01-13T03:56:09.938Z,57.74
2023-01-13T03:58:54.785Z,57.61
2023-01-13T04:01:39.678Z,57.36
2023-01-13T04:04:24.993Z,58.06
2023-01-13T04:07:09.750Z,58.28
2023-01-13T04:09:54.588Z,57.97
2023-01-13T04:12:39.413Z,57.81
2023-01-13T04:15:24.147Z,58.04
2023-01-13T04:18:09.517Z,59.20
2023-01-13T04:20:54.272Z,58.38
2023-01-13T04:23:39.088Z,59.53
2023-01-13T04:26:23.879Z,58.32
2023-01-13T04:29:08.560Z,57.73
2023-01-13T04:31:53.265Z,58.39
2023-01-13T04:34:38.172Z,59.69
2023-01-13T04:37:22.892Z,58.94
2023-01-13T04:40:07.652Z,59.58
2023-01-13T04:42:52.482Z,58.25
2023-01-13T04:45:37.206Z,59.65
2023-01-13T04:48:22.022Z,58.53
2023-01-13T04:51:06.710Z,58.14
2023-01-13T04:53:51.485Z,57.86
2023-01-13T04:56:36.252Z,57.59
2023-01-13T04:59:21.111Z,58.21
2023-01-13T05:02:05.880Z,58.58
2023-01-13T05:04:50.637Z,58.25
2023-01-13T05:07:35.382Z,56.32
2023-01-13T05:10:21.953Z,56.36
2023-01-13T05:13:08.236Z,57.36
2023-01-13T05:15:53.065Z,55.64
2023-01-13T05:18:37.866Z,55.76
2023-01-13T05:21:22.487Z,56.66
2023-01-13T05:24:07.284Z,56.67
2023-01-13T05:26:52.125Z,55.94
2023-01-13T05:29:36.957Z,55.15
2023-01-13T05:32:21.771Z,54.53
2023-01-13T05:35:06.556Z,54.27
2023-01-13T05:37:51.354Z,54.72
2023-01-13T05:40:35.999Z,55.76
2023-01-13T05:43:20.863Z,57.81
2023-01-13T05:46:05.760Z,56.87
2023-01-13T05:48:51.019Z,55.69
2023-01-13T05:51:35.608Z,54.22
2023-01-13T05:54:20.574Z,53.47
2023-01-13T05:57:05.370Z,53.66
2023-01-13T05:59:50.144Z,53.89
2023-01-13T06:02:34.966Z,55.32
2023-01-13T06:05:19.578Z,55.87
2023-01-13T06:08:04.399Z,54.09
2023-01-13T06:10:49.028Z,53.36
2023-01-13T06:13:33.781Z,53.83
2023-01-13T06:16:18.668Z,54.67
2023-01-13T06:19:03.980Z,55.81
2023-01-13T06:21:48.698Z,56.79
2023-01-13T06:24:33.411Z,56.67
2023-01-13T06:27:18.285Z,56.50
2023-01-13T06:30:03.272Z,56.37
2023-01-13T06:32:48.284Z,56.52
2023-01-13T06:35:32.837Z,56.74
2023-01-13T06:38:17.849Z,57.24
2023-01-13T06:41:02.593Z,57.45
2023-01-13T06:43:47.324Z,57.70
2023-01-13T06:46:32.076Z,58.16
2023-01-13T06:49:17.211Z,58.38
2023-01-13T06:52:02.200Z,57.89
2023-01-13T06:54:46.901Z,58.42
2023-01-13T06:57:31.779Z,58.55
2023-01-13T07:00:16.335Z,58.37
2023-01-13T07:03:01.191Z,58.52
2023-01-13T07:05:45.820Z,58.10
2023-01-13T07:08:30.682Z,58.19
2023-01-13T07:11:15.452Z,58.49
2023-01-13T07:14:00.219Z,58.35
2023-01-13T07:16:44.970Z,57.93
2023-01-13T07:19:30.142Z,58.95
2023-01-13T07:22:14.959Z,59.01
2023-01-13T07:24:59.862Z,58.76
2023-01-13T07:27:44.629Z,58.54
2023-01-13T07:30:29.395Z,58.81
2023-01-13T07:33:14.053Z,58.49
2023-01-13T07:35:58.779Z,58.05
2023-01-13T07:38:43.681Z,58.08
2023-01-13T07:41:28.590Z,57.51
2023-01-13T07:44:13.815Z,57.54
2023-01-13T07:46:58.636Z,57.66
2023-01-13T07:49:43.388Z,57.33
2023-01-13T07:52:28.225Z,57.07
2023-01-13T07:55:13.016Z,56.92
2023-01-13T07:57:57.671Z,56.69
2023-01-13T08:00:42.489Z,56.41
2023-01-13T08:03:27.289Z,56.57
2023-01-13T08:06:11.973Z,55.96
2023-01-13T08:08:56.789Z,56.38
2023-01-13T08:11:41.463Z,56.96
2023-01-13T08:14:26.413Z,56.54
2023-01-13T08:17:11.250Z,56.61
2023-01-13T08:19:55.888Z,57.70
2023-01-13T08:22:40.875Z,57.65
2023-01-13T08:25:25.620Z,57.71
2023-01-13T08:28:10.419Z,57.36
2023-01-13T08:30:55.133Z,57.52
2023-01-13T08:33:39.812Z,57.95
2023-01-13T08:36:24.521Z,57.84
2023-01-13T08:39:09.207Z,57.97
2023-01-13T08:41:53.852Z,58.69
2023-01-13T08:44:38.731Z,58.74
2023-01-13T08:47:23.404Z,58.58
2023-01-13T08:50:08.407Z,59.06
2023-01-13T08:52:53.338Z,59.42
2023-01-13T08:55:38.112Z,60.90
2023-01-13T08:58:22.909Z,60.73
2023-01-13T09:01:07.674Z,60.68
2023-01-13T09:03:54.065Z,61.15
2023-01-13T09:06:39.307Z,61.68
2023-01-13T09:09:24.080Z,61.34
2023-01-13T09:12:08.760Z,61.28
2023-01-13T09:14:53.481Z,61.82
2023-01-13T09:17:38.418Z,61.48
2023-01-13T09:20:23.107Z,61.27
2023-01-13T09:23:10.380Z,61.11
2023-01-13T09:25:55.832Z,61.29
2023-01-13T09:28:40.470Z,61.46
2023-01-13T09:31:25.235Z,60.82
2023-01-13T09:34:09.805Z,60.51
2023-01-13T09:36:54.709Z,60.53
2023-01-13T09:39:39.367Z,60.74
2023-01-13T09:42:24.151Z,59.45
2023-01-13T09:45:08.743Z,60.09
2023-01-13T09:47:53.437Z,61.29
2023-01-13T09:50:38.237Z,60.37
2023-01-13T09:53:22.881Z,59.18
2023-01-13T09:56:07.690Z,59.97
2023-01-13T09:58:52.662Z,61.15
2023-01-13T10:01:37.330Z,61.66
2023-01-13T10:04:22.096Z,60.64
2023-01-13T10:07:06.820Z,60.76
2023-01-13T10:09:51.622Z,61.50
2023-01-13T10:12:36.488Z,59.87
2023-01-13T10:15:21.259Z,58.33
2023-01-13T10:18:06.055Z,58.73
2023-01-13T10:20:50.716Z,57.28
2023-01-13T10:23:35.509Z,62.43
2023-01-13T10:26:20.267Z,64.33
2023-01-13T10:29:04.997Z,65.52
2023-01-13T10:31:49.835Z,65.79
2023-01-13T10:34:34.770Z,63.91
2023-01-13T10:37:19.823Z,63.81
2023-01-13T10:40:04.492Z,63.84
2023-01-13T10:42:49.453Z,63.87
2023-01-13T10:45:34.046Z,63.53
2023-01-13T10:48:18.867Z,64.07
2023-01-13T10:51:03.621Z,62.60
2023-01-13T10:53:48.392Z,62.87
2023-01-13T10:56:33.126Z,63.43
2023-01-13T10:59:17.824Z,64.25
2023-01-13T11:02:12.965Z,64.25
2023-01-13T11:05:04.592Z,64.23
2023-01-13T11:07:49.350Z,61.43
2023-01-13T11:10:34.033Z,61.59
2023-01-13T11:13:18.771Z,62.23
2023-01-13T11:16:03.605Z,60.32
2023-01-13T11:18:48.397Z,59.02
2023-01-13T11:21:33.011Z,58.73
2023-01-13T11:24:17.866Z,58.31
2023-01-13T11:27:02.613Z,58.89
2023-01-13T11:29:47.299Z,58.63
2023-01-13T11:32:32.111Z,59.40
2023-01-13T11:35:16.800Z,60.51
2023-01-13T11:38:01.612Z,60.32
2023-01-13T11:40:46.339Z,59.69
2023-01-13T11:43:31.139Z,60.02
2023-01-13T11:46:15.846Z,61.00
2023-01-13T11:49:00.509Z,61.86
2023-01-13T11:51:45.309Z,62.02
2023-01-13T11:54:30.188Z,61.45
2023-01-13T11:57:14.805Z,62.05
2023-01-13T11:59:59.608Z,62.03
2023-01-13T12:02:44.670Z,62.43
2023-01-13T12:05:29.480Z,63.28
2023-01-13T12:08:14.263Z,63.33
2023-01-13T12:10:58.950Z,62.72
2023-01-13T12:13:43.779Z,63.59
2023-01-13T12:16:28.863Z,63.64
2023-01-13T12:19:13.997Z,62.48
2023-01-13T12:21:58.761Z,64.42
2023-01-13T12:24:43.445Z,63.27
2023-01-13T12:27:28.062Z,63.35
2023-01-13T12:30:12.955Z,63.75
2023-01-13T12:32:58.228Z,63.67
2023-01-13T12:35:42.945Z,63.82
2023-01-13T12:38:27.825Z,63.99
2023-01-13T12:41:12.585Z,64.28
2023-01-13T12:43:57.205Z,62.30
2023-01-13T12:46:41.912Z,61.43
2023-01-13T12:49:26.643Z,60.92
2023-01-13T12:52:11.425Z,60.95
2023-01-13T12:54:56.154Z,61.74
2023-01-13T12:57:41.323Z,60.60
2023-01-13T13:00:26.080Z,58.54
2023-01-13T13:03:10.740Z,58.85
2023-01-13T13:05:55.395Z,60.13
2023-01-13T13:08:40.237Z,59.25
2023-01-13T13:11:25.066Z,58.02
2023-01-13T13:14:10.018Z,58.35
2023-01-13T13:16:54.835Z,57.24
2023-01-13T13:19:39.936Z,56.45
2023-01-13T13:22:24.808Z,55.08
2023-01-13T13:25:09.495Z,58.00
2023-01-13T13:27:54.323Z,58.63
2023-01-13T13:30:39.009Z,57.74
2023-01-13T13:33:23.677Z,56.19
2023-01-13T13:36:08.311Z,55.06
2023-01-13T13:38:53.131Z,55.13
2023-01-13T13:41:38.398Z,57.25
2023-01-13T13:44:23.153Z,57.25
2023-01-13T13:47:07.963Z,59.07
2023-01-13T13:49:52.602Z,57.71
2023-01-13T13:52:37.365Z,57.85
2023-01-13T13:55:22.080Z,57.89
2023-01-13T13:58:06.858Z,58.90
2023-01-13T14:00:51.603Z,58.33
2023-01-13T14:03:39.040Z,56.28
2023-01-13T14:06:25.108Z,55.86
2023-01-13T14:09:09.794Z,55.29
2023-01-13T14:11:54.579Z,56.30
2023-01-13T14:14:39.340Z,55.89
2023-01-13T14:17:24.149Z,58.82
2023-01-13T14:20:09.020Z,59.25
2023-01-13T14:22:53.747Z,58.92
2023-01-13T14:25:38.427Z,58.13
2023-01-13T14:28:23.141Z,57.70
2023-01-13T14:31:07.906Z,57.67
2023-01-13T14:33:53.100Z,55.56
2023-01-13T14:36:37.923Z,57.01
2023-01-13T14:39:22.684Z,58.28
2023-01-13T14:42:07.630Z,58.36
2023-01-13T14:44:52.263Z,57.15
2023-01-13T14:47:37.041Z,56.84
2023-01-13T14:50:21.810Z,55.54
2023-01-13T14:53:06.658Z,53.51
2023-01-13T14:55:51.420Z,54.32
2023-01-13T14:58:36.069Z,55.41
2023-01-13T15:01:20.903Z,54.78
2023-01-13T15:04:06.127Z,55.83
2023-01-13T15:06:50.842Z,54.57
2023-01-13T15:09:35.522Z,53.77
2023-01-13T15:12:20.408Z,52.38
2023-01-13T15:15:05.055Z,56.23
2023-01-13T15:17:50.439Z,57.79
2023-01-13T15:20:35.221Z,58.23
2023-01-13T15:23:19.980Z,59.11
2023-01-13T15:26:04.826Z,58.38
2023-01-13T15:28:49.538Z,58.74
2023-01-13T15:31:34.393Z,58.01
2023-01-13T15:34:19.160Z,57.91
2023-01-13T15:37:04.030Z,58.34
2023-01-13T15:39:48.690Z,57.45
2023-01-13T15:42:33.668Z,57.44
2023-01-13T15:45:18.356Z,56.10
2023-01-13T15:48:03.244Z,56.40
2023-01-13T15:50:48.019Z,57.11
2023-01-13T15:53:33.225Z,56.41
2023-01-13T15:56:17.921Z,54.85
2023-01-13T15:59:02.692Z,57.08
2023-01-13T16:01:47.556Z,56.04
2023-01-13T16:04:32.259Z,55.01
2023-01-13T16:07:17.044Z,54.73
2023-01-13T16:10:01.673Z,53.83
2023-01-13T16:12:46.602Z,53.89
2023-01-13T16:15:31.296Z,54.45
2023-01-13T16:18:16.120Z,54.15
2023-01-13T16:21:00.834Z,52.80
2023-01-13T16:23:45.863Z,52.02
2023-01-13T16:26:30.456Z,51.82
2023-01-13T16:29:15.265Z,52.13
2023-01-13T16:32:00.252Z,50.95
2023-01-13T16:34:45.072Z,50.96
2023-01-13T16:37:29.784Z,50.95
2023-01-13T16:40:14.552Z,51.83
2023-01-13T16:42:59.503Z,50.63
2023-01-13T16:45:44.341Z,50.84
2023-01-13T16:48:29.119Z,50.85
2023-01-13T16:51:13.861Z,51.85
2023-01-13T16:53:58.638Z,52.21
2023-01-13T16:56:43.442Z,52.48
2023-01-13T16:59:28.124Z,52.87
2023-01-13T17:02:13.035Z,52.21
2023-01-13T17:04:57.700Z,52.00
2023-01-13T17:07:42.469Z,50.94
2023-01-13T17:10:27.257Z,50.07
2023-01-13T17:13:16.468Z,50.15
2023-01-13T17:16:01.966Z,49.83
2023-01-13T17:18:48.160Z,50.99
2023-01-13T17:21:33.231Z,51.20
2023-01-13T17:24:17.968Z,50.51
2023-01-13T17:27:02.621Z,49.70
2023-01-13T17:29:47.427Z,49.16
2023-01-13T17:32:32.271Z,49.31
2023-01-13T17:35:17.088Z,49.69
2023-01-13T17:38:01.817Z,49.26
2023-01-13T17:40:46.545Z,49.34
2023-01-13T17:43:31.204Z,50.21
2023-01-13T17:46:16.036Z,49.82
2023-01-13T17:49:00.720Z,49.96
2023-01-13T17:51:45.623Z,50.66
2023-01-13T17:54:30.294Z,50.38
2023-01-13T17:57:15.109Z,51.19
2023-01-13T17:59:59.781Z,50.52
2023-01-13T18:02:44.408Z,50.35
2023-01-13T18:05:29.115Z,50.45
2023-01-13T18:08:13.806Z,49.23
2023-01-13T18:10:58.607Z,51.05
2023-01-13T18:13:43.278Z,50.29
2023-01-13T18:16:30.385Z,51.34
2023-01-13T18:19:15.349Z,50.51
2023-01-13T18:22:00.203Z,50.87
2023-01-13T18:24:45.040Z,51.46
2023-01-13T18:27:29.845Z,51.98
2023-01-13T18:30:14.770Z,50.61
2023-01-13T18:32:59.593Z,49.68
2023-01-13T18:35:44.441Z,50.22
2023-01-13T18:38:29.230Z,50.05
2023-01-13T18:41:14.047Z,49.92
2023-01-13T18:43:58.785Z,49.72
2023-01-13T18:46:43.473Z,48.70
2023-01-13T18:49:28.087Z,49.25
2023-01-13T18:52:12.800Z,49.54
2023-01-13T18:54:57.709Z,49.66
2023-01-13T18:57:42.413Z,50.40
2023-01-13T19:00:27.289Z,50.05
2023-01-13T19:03:12.114Z,50.04
2023-01-13T19:05:56.904Z,50.44
2023-01-13T19:08:41.499Z,49.83
2023-01-13T19:11:26.230Z,49.83
2023-01-13T19:14:10.953Z,50.34
2023-01-13T19:16:55.655Z,50.58
2023-01-13T19:19:40.297Z,50.71
2023-01-13T19:22:25.206Z,49.72
2023-01-13T19:25:10.197Z,49.88
2023-01-13T19:27:54.955Z,50.68
2023-01-13T19:30:39.829Z,50.29
2023-01-13T19:33:24.586Z,49.44
2023-01-13T19:36:09.407Z,49.08
2023-01-13T19:38:54.103Z,48.66
2023-01-13T19:41:39.041Z,49.39
2023-01-13T19:44:23.836Z,49.34
2023-01-13T19:47:08.710Z,50.33
2023-01-13T19:49:53.502Z,50.36
2023-01-13T19:52:38.317Z,49.98
2023-01-13T19:55:23.165Z,50.32
2023-01-13T19:58:07.896Z,51.22
2023-01-13T20:00:52.722Z,50.50
2023-01-13T20:03:37.404Z,49.83
2023-01-13T20:06:22.266Z,49.36
2023-01-13T20:09:06.836Z,49.88
2023-01-13T20:11:51.675Z,50.48
2023-01-13T20:14:36.356Z,50.83
2023-01-13T20:17:21.132Z,49.84
2023-01-13T20:20:05.859Z,50.87
2023-01-13T20:22:50.639Z,52.06
2023-01-13T20:25:35.498Z,52.38
2023-01-13T20:28:20.639Z,51.89
2023-01-13T20:31:05.494Z,51.82
2023-01-13T20:33:50.112Z,51.89
2023-01-13T20:36:35.080Z,52.13
2023-01-13T20:39:19.739Z,52.99
2023-01-13T20:42:04.682Z,53.64
2023-01-13T20:44:49.395Z,53.59
2023-01-13T20:47:34.181Z,53.70
2023-01-13T20:50:18.923Z,53.92
2023-01-13T20:53:03.705Z,54.08
2023-01-13T20:55:48.548Z,54.25
2023-01-13T20:58:33.174Z,53.69
2023-01-13T21:01:18.105Z,53.44
2023-01-13T21:04:03.267Z,61.48
2023-01-13T21:06:47.952Z,55.07
2023-01-13T21:09:32.708Z,55.54
2023-01-13T21:12:20.423Z,57.61
2023-01-13T21:15:05.240Z,55.30
2023-01-13T21:17:49.906Z,54.23
2023-01-13T21:20:34.753Z,54.19
2023-01-13T21:23:19.464Z,53.63
2023-01-13T21:26:04.398Z,56.63
2023-01-13T21:28:49.081Z,55.40
2023-01-13T21:31:33.793Z,54.16
2023-01-13T21:34:18.518Z,53.59
2023-01-13T21:37:03.448Z,53.47
2023-01-13T21:39:48.140Z,54.26
2023-01-13T21:42:32.963Z,54.43
2023-01-13T21:45:17.999Z,55.69
2023-01-13T21:48:02.766Z,55.33
2023-01-13T21:50:47.683Z,53.89
2023-01-13T21:53:32.307Z,54.47
2023-01-13T21:56:17.294Z,53.82
2023-01-13T21:59:01.909Z,52.54
2023-01-13T22:02:22.980Z,53.34
2023-01-13T22:04:51.764Z,53.78
2023-01-13T22:07:37.471Z,54.37
2023-01-13T22:10:22.270Z,53.50
2023-01-13T22:13:07.107Z,54.00
2023-01-13T22:15:51.769Z,54.15
2023-01-13T22:18:36.569Z,54.39
2023-01-13T22:21:21.317Z,54.87
2023-01-13T22:24:06.475Z,54.42
2023-01-13T22:26:51.495Z,54.36
2023-01-13T22:29:37.759Z,54.72
2023-01-13T22:32:22.529Z,54.00
2023-01-13T22:35:07.273Z,53.94
2023-01-13T22:37:51.927Z,53.29
2023-01-13T22:40:36.640Z,53.33
2023-01-13T22:43:21.727Z,51.90
2023-01-13T22:46:06.542Z,52.04
2023-01-13T22:48:51.821Z,51.00
2023-01-13T22:51:36.561Z,51.26
2023-01-13T22:54:21.231Z,52.07
2023-01-13T22:57:05.819Z,52.06
2023-01-13T22:59:50.679Z,50.17
2023-01-13T23:02:35.318Z,51.65
2023-01-13T23:05:20.300Z,50.99
2023-01-13T23:08:05.150Z,51.28
2023-01-13T23:10:49.756Z,52.96
2023-01-13T23:13:34.562Z,52.97
2023-01-13T23:16:19.390Z,52.78
2023-01-13T23:19:04.179Z,52.32
2023-01-13T23:21:48.870Z,51.71
2023-01-13T23:24:33.619Z,51.63
2023-01-13T23:27:18.361Z,52.00
2023-01-13T23:30:03.073Z,51.75
2023-01-13T23:32:48.219Z,52.08
2023-01-13T23:35:33.318Z,52.47
2023-01-13T23:38:18.097Z,52.05
2023-01-13T23:41:02.877Z,52.10
2023-01-13T23:43:47.753Z,52.40
2023-01-13T23:46:32.504Z,52.24
2023-01-13T23:49:17.835Z,52.77
2023-01-13T23:52:02.540Z,53.53
2023-01-13T23:54:47.356Z,54.04
2023-01-13T23:57:32.019Z,53.90
